Time;durP1;ratioP1;P1;durP2;ratioP2;P2;SDS_P1;SDS_P2;PMS_P1;PMS_P2;Temp;Humidity;BMP_temperature;BMP_pressure;BME280_temperature;BME280_humidity;BME280_pressure;Samples;Min_cycle;Max_cycle;Signal;HPM_P1;HPM_P2
2023/10/28 00:00:16;;;;;;;7.43;2.90;;;9.20;99.90;;;;;;4976573;28;20065;-76
2023/10/28 00:02:41;;;;;;;5.07;3.75;;;9.20;99.90;;;;;;4974288;28;20532;-78
2023/10/28 00:05:07;;;;;;;12.00;3.63;;;9.20;99.90;;;;;;4977880;28;20061;-77
2023/10/28 00:07:33;;;;;;;14.82;3.40;;;9.20;99.90;;;;;;4959927;28;20046;-78
2023/10/28 00:09:58;;;;;;;11.90;3.25;;;9.20;99.90;;;;;;4976742;28;20305;-78
2023/10/28 00:12:24;;;;;;;8.95;3.45;;;9.20;99.90;;;;;;4961628;28;20437;-77
2023/10/28 00:14:50;;;;;;;6.32;2.78;;;9.20;99.90;;;;;;4958195;28;20098;-77
2023/10/28 00:17:17;;;;;;;5.93;2.58;;;9.30;99.90;;;;;;4977790;28;20526;-77
2023/10/28 00:19:44;;;;;;;7.25;2.85;;;9.30;99.90;;;;;;4975780;28;20509;-76
2023/10/28 00:22:10;;;;;;;10.40;3.10;;;9.30;99.90;;;;;;4981124;28;20037;-80
2023/10/28 00:24:36;;;;;;;11.23;2.67;;;9.30;99.90;;;;;;4975303;28;20406;-80
2023/10/28 00:27:01;;;;;;;6.55;2.33;;;9.30;99.90;;;;;;4978633;28;20045;-81
2023/10/28 00:29:27;;;;;;;4.03;2.53;;;9.30;99.90;;;;;;4977843;28;20483;-81
2023/10/28 00:31:53;;;;;;;5.20;2.42;;;9.30;99.90;;;;;;4963964;28;20475;-81
2023/10/28 00:34:18;;;;;;;6.68;2.47;;;9.30;99.90;;;;;;4964480;28;20049;-81
2023/10/28 00:36:44;;;;;;;9.63;3.45;;;9.30;99.90;;;;;;4965942;28;20105;-82
2023/10/28 00:39:11;;;;;;;10.23;3.17;;;9.30;99.90;;;;;;4972546;28;20034;-79
2023/10/28 00:41:37;;;;;;;7.40;2.85;;;9.30;99.90;;;;;;4977854;28;20589;-79
2023/10/28 00:44:03;;;;;;;7.32;2.80;;;9.30;99.90;;;;;;4973958;28;20120;-81
2023/10/28 00:46:28;;;;;;;5.82;2.40;;;9.30;99.90;;;;;;4960273;28;20106;-81
2023/10/28 00:48:54;;;;;;;4.85;2.63;;;9.20;99.90;;;;;;4972446;28;20582;-82
2023/10/28 00:51:20;;;;;;;5.95;3.65;;;9.20;99.90;;;;;;4979008;28;20053;-80
2023/10/28 00:53:45;;;;;;;8.23;2.50;;;9.30;99.90;;;;;;4975674;28;20026;-81
2023/10/28 00:56:12;;;;;;;6.43;2.83;;;9.30;99.90;;;;;;4959774;28;20019;-78
2023/10/28 00:58:38;;;;;;;14.45;2.92;;;9.30;99.90;;;;;;4981063;28;20037;-81
2023/10/28 01:01:05;;;;;;;7.28;2.42;;;9.30;99.90;;;;;;4975304;28;20053;-78
2023/10/28 01:03:31;;;;;;;2.63;2.10;;;9.30;99.90;;;;;;4959984;28;20088;-78
2023/10/28 01:05:57;;;;;;;10.98;2.65;;;9.30;99.90;;;;;;4959749;28;20426;-78
2023/10/28 01:08:23;;;;;;;10.23;3.03;;;9.30;99.90;;;;;;4995276;28;20383;-80
2023/10/28 01:10:48;;;;;;;5.50;2.35;;;9.30;99.90;;;;;;4976246;28;20037;-80
2023/10/28 01:13:14;;;;;;;11.13;2.53;;;9.30;99.90;;;;;;4978957;28;20479;-80
2023/10/28 01:15:39;;;;;;;8.25;2.03;;;9.40;99.90;;;;;;4963547;28;20534;-81
2023/10/28 01:18:05;;;;;;;11.27;2.10;;;9.40;99.90;;;;;;4976245;28;20439;-78
2023/10/28 01:20:31;;;;;;;8.80;2.72;;;9.40;99.90;;;;;;4974032;28;20045;-78
2023/10/28 01:22:58;;;;;;;6.50;2.03;;;9.40;99.90;;;;;;4963509;28;20383;-78
2023/10/28 01:25:25;;;;;;;10.70;2.58;;;9.40;99.90;;;;;;4962825;28;20038;-81
2023/10/28 01:27:50;;;;;;;9.07;2.40;;;9.40;99.90;;;;;;4961090;28;20499;-81
2023/10/28 01:30:16;;;;;;;13.00;2.95;;;9.40;99.90;;;;;;4992373;28;20034;-79
2023/10/28 01:32:42;;;;;;;8.48;2.08;;;9.50;99.90;;;;;;4978089;28;20540;-78
2023/10/28 01:35:09;;;;;;;8.27;2.40;;;9.50;99.90;;;;;;4972282;28;20042;-76
2023/10/28 01:37:35;;;;;;;10.57;2.83;;;9.50;99.90;;;;;;4958320;28;20498;-78
2023/10/28 01:40:00;;;;;;;7.80;2.17;;;9.50;99.90;;;;;;4974368;28;20048;-78
2023/10/28 01:42:26;;;;;;;7.22;2.25;;;9.50;99.90;;;;;;4957625;28;20030;-78
2023/10/28 01:44:51;;;;;;;9.93;2.28;;;9.60;99.90;;;;;;4961628;28;20051;-78
2023/10/28 01:47:17;;;;;;;10.23;3.53;;;9.60;99.90;;;;;;4959621;28;20561;-78
2023/10/28 01:49:43;;;;;;;7.20;2.13;;;9.60;99.90;;;;;;4975057;28;20407;-78
2023/10/28 01:52:09;;;;;;;9.73;2.17;;;9.60;99.90;;;;;;4955995;28;20037;-78
2023/10/28 01:54:35;;;;;;;7.40;1.92;;;9.60;99.90;;;;;;4975238;28;20030;-78
2023/10/28 01:57:09;;;;;;;12.23;2.33;;;9.70;99.90;;;;;;4958683;28;20034;-79
2023/10/28 01:59:35;;;;;;;7.05;2.78;;;9.70;99.90;;;;;;4976570;28;20030;-79
2023/10/28 02:02:02;;;;;;;7.88;1.95;;;9.70;99.90;;;;;;4961419;28;20402;-78
2023/10/28 02:04:29;;;;;;;9.82;1.70;;;9.70;99.90;;;;;;4959954;28;20038;-79
2023/10/28 02:06:54;;;;;;;3.22;1.73;;;9.70;99.90;;;;;;4977941;28;20031;-78
2023/10/28 02:09:20;;;;;;;8.20;2.38;;;9.80;99.90;;;;;;4958596;28;20032;-78
2023/10/28 02:11:47;;;;;;;7.43;1.98;;;9.80;99.90;;;;;;4955954;28;20033;-78
2023/10/28 02:14:13;;;;;;;11.23;2.30;;;9.80;99.90;;;;;;4973124;28;20041;-78
2023/10/28 02:16:39;;;;;;;4.43;1.20;;;9.80;99.90;;;;;;4977339;28;20034;-79
2023/10/28 02:19:05;;;;;;;7.80;1.95;;;9.80;99.90;;;;;;4976676;28;20054;-78
2023/10/28 02:21:31;;;;;;;3.22;1.30;;;9.90;99.90;;;;;;4973152;28;20449;-78
2023/10/28 02:23:57;;;;;;;4.65;1.48;;;9.90;99.90;;;;;;4973300;28;20548;-78
2023/10/28 02:26:22;;;;;;;6.30;1.30;;;9.90;99.90;;;;;;4954659;28;20061;-78
2023/10/28 02:28:48;;;;;;;4.00;1.42;;;9.90;99.90;;;;;;4958736;28;20046;-79
2023/10/28 02:31:14;;;;;;;6.15;1.52;;;9.90;99.90;;;;;;4960416;28;20030;-78
2023/10/28 02:33:39;;;;;;;3.45;1.00;;;9.90;99.90;;;;;;4973788;28;20041;-78
2023/10/28 02:36:06;;;;;;;6.00;1.52;;;9.90;99.90;;;;;;4959016;28;20038;-78
2023/10/28 02:38:32;;;;;;;7.72;1.52;;;9.90;99.90;;;;;;4958638;28;20494;-78
2023/10/28 02:40:58;;;;;;;6.90;1.70;;;9.90;99.90;;;;;;4973740;28;20038;-78
2023/10/28 02:43:23;;;;;;;3.38;1.40;;;9.90;99.90;;;;;;4972825;28;20031;-78
2023/10/28 02:45:49;;;;;;;9.73;1.85;;;9.90;99.90;;;;;;4957996;28;20038;-79
2023/10/28 02:48:14;;;;;;;7.10;2.03;;;9.90;99.90;;;;;;4977124;28;20069;-78
2023/10/28 02:50:40;;;;;;;7.07;2.58;;;9.90;99.90;;;;;;4975996;28;20034;-79
2023/10/28 02:53:06;;;;;;;6.47;2.25;;;9.80;99.90;;;;;;4978732;28;20043;-79
2023/10/28 02:55:35;;;;;;;10.98;2.97;;;9.90;99.90;;;;;;4958927;28;20069;-78
2023/10/28 02:58:01;;;;;;;6.63;2.28;;;9.80;99.90;;;;;;4954885;28;20114;-78
2023/10/28 03:00:26;;;;;;;5.03;1.90;;;9.80;99.90;;;;;;4976868;28;20113;-78
2023/10/28 03:02:55;;;;;;;6.03;2.53;;;9.90;99.90;;;;;;4990699;28;20026;-78
2023/10/28 03:05:22;;;;;;;5.97;2.53;;;9.80;99.90;;;;;;4975225;28;20128;-77
2023/10/28 03:07:48;;;;;;;6.32;2.42;;;9.80;99.90;;;;;;4960420;28;20042;-78
2023/10/28 03:10:13;;;;;;;4.82;2.35;;;9.90;99.90;;;;;;4975101;28;20053;-78
2023/10/28 03:12:39;;;;;;;4.32;2.17;;;9.80;99.90;;;;;;4955842;28;20034;-78
2023/10/28 03:15:05;;;;;;;8.15;3.10;;;9.80;99.90;;;;;;4973804;28;20034;-78
2023/10/28 03:17:31;;;;;;;2.58;1.85;;;9.80;99.90;;;;;;4991248;28;20038;-78
2023/10/28 03:19:57;;;;;;;6.18;2.20;;;9.80;99.90;;;;;;4977883;28;20042;-77
2023/10/28 03:22:22;;;;;;;7.60;2.38;;;9.80;99.90;;;;;;4958891;28;20457;-78
2023/10/28 03:24:48;;;;;;;6.05;1.75;;;9.80;99.90;;;;;;4971151;28;20031;-78
2023/10/28 03:27:14;;;;;;;6.40;2.20;;;9.80;99.90;;;;;;4953973;28;20038;-78
2023/10/28 03:29:40;;;;;;;4.32;1.77;;;9.80;99.90;;;;;;4970625;28;20034;-78
2023/10/28 03:32:07;;;;;;;7.32;2.40;;;9.80;99.90;;;;;;4967787;28;20380;-78
2023/10/28 03:34:32;;;;;;;5.15;2.25;;;9.80;99.90;;;;;;4957843;28;20039;-77
2023/10/28 03:36:58;;;;;;;3.90;1.55;;;9.80;99.90;;;;;;4971301;28;20600;-78
2023/10/28 03:39:23;;;;;;;5.57;1.85;;;9.80;99.90;;;;;;4975407;28;20085;-78
2023/10/28 03:41:49;;;;;;;5.30;1.70;;;9.80;99.90;;;;;;4956786;28;20781;-78
2023/10/28 03:44:15;;;;;;;6.45;2.30;;;9.80;99.90;;;;;;4968702;28;20030;-78
2023/10/28 03:46:41;;;;;;;3.90;1.80;;;9.80;99.90;;;;;;4975540;28;20037;-77
2023/10/28 03:49:06;;;;;;;7.40;1.85;;;9.80;99.90;;;;;;4975598;28;20034;-77
2023/10/28 03:51:34;;;;;;;6.20;2.10;;;9.80;99.90;;;;;;4971881;28;20084;-77
2023/10/28 03:54:00;;;;;;;6.65;1.75;;;9.80;99.90;;;;;;4979553;28;20495;-78
2023/10/28 03:56:26;;;;;;;4.68;1.77;;;9.80;99.90;;;;;;4975227;28;20086;-77
2023/10/28 03:58:51;;;;;;;6.90;2.85;;;9.80;99.90;;;;;;4957957;28;20121;-77
2023/10/28 04:01:17;;;;;;;5.32;1.80;;;9.70;99.90;;;;;;4974654;28;20097;-77
2023/10/28 04:03:43;;;;;;;2.97;2.00;;;9.80;99.90;;;;;;4977321;28;20031;-77
2023/10/28 04:06:08;;;;;;;4.90;2.75;;;9.70;99.90;;;;;;4978884;28;20081;-78
2023/10/28 04:08:34;;;;;;;4.93;1.88;;;9.70;99.90;;;;;;4960556;28;20486;-77
2023/10/28 04:10:59;;;;;;;4.65;2.05;;;9.70;99.90;;;;;;4961682;28;20038;-78
2023/10/28 04:13:25;;;;;;;4.50;1.90;;;9.70;99.90;;;;;;4976184;28;20100;-77
2023/10/28 04:15:50;;;;;;;5.18;1.92;;;9.70;99.90;;;;;;4963987;28;20037;-77
2023/10/28 04:18:16;;;;;;;3.90;1.80;;;9.60;99.90;;;;;;4958589;28;20034;-78
2023/10/28 04:20:41;;;;;;;7.35;2.05;;;9.60;99.90;;;;;;4972050;28;20039;-77
2023/10/28 04:23:07;;;;;;;4.35;1.95;;;9.60;99.90;;;;;;4973804;28;20034;-78
2023/10/28 04:25:33;;;;;;;6.72;1.95;;;9.50;99.90;;;;;;4970761;28;20029;-77
2023/10/28 04:27:58;;;;;;;2.55;2.33;;;9.50;99.90;;;;;;4975337;28;20121;-77
2023/10/28 04:30:24;;;;;;;3.65;2.03;;;9.50;99.90;;;;;;4969707;28;20054;-78
2023/10/28 04:32:52;;;;;;;5.13;2.05;;;9.50;99.90;;;;;;4943282;28;20120;-77
2023/10/28 04:35:18;;;;;;;8.93;2.22;;;9.50;99.90;;;;;;4974304;28;20035;-77
2023/10/28 04:37:43;;;;;;;7.88;1.52;;;9.60;99.90;;;;;;4979687;28;20033;-78
2023/10/28 04:40:10;;;;;;;4.85;1.60;;;9.50;99.90;;;;;;4975070;28;20057;-77
2023/10/28 04:42:36;;;;;;;4.88;2.17;;;9.50;99.90;;;;;;4974811;28;20038;-77
2023/10/28 04:45:04;;;;;;;4.22;2.03;;;9.50;99.90;;;;;;4974219;28;20030;-77
2023/10/28 04:47:30;;;;;;;3.65;1.60;;;9.50;99.90;;;;;;4973414;28;20752;-76
2023/10/28 04:49:55;;;;;;;5.75;1.85;;;9.50;99.90;;;;;;4979395;28;20031;-78
2023/10/28 04:52:21;;;;;;;4.22;1.77;;;9.50;99.90;;;;;;4978356;28;20427;-77
2023/10/28 04:54:46;;;;;;;1.75;1.17;;;9.50;99.90;;;;;;4974361;28;20084;-77
2023/10/28 04:57:12;;;;;;;3.50;1.50;;;9.50;99.90;;;;;;4974122;28;20059;-77
2023/10/28 04:59:39;;;;;;;4.00;1.60;;;9.50;99.90;;;;;;4959711;28;20056;-77
2023/10/28 05:02:05;;;;;;;5.55;1.55;;;9.40;99.90;;;;;;4974567;28;20044;-77
2023/10/28 05:04:31;;;;;;;3.40;1.30;;;9.40;99.90;;;;;;4971403;28;20030;-78
2023/10/28 05:06:56;;;;;;;8.85;2.85;;;9.40;99.90;;;;;;4974792;28;20034;-76
2023/10/28 05:09:22;;;;;;;3.85;1.60;;;9.40;99.90;;;;;;4969132;28;20030;-77
2023/10/28 05:11:56;;;;;;;3.10;1.25;;;9.40;99.90;;;;;;4957931;28;20026;-77
2023/10/28 05:14:25;;;;;;;3.25;1.42;;;9.40;99.90;;;;;;4975475;28;20502;-76
2023/10/28 05:16:54;;;;;;;4.30;1.60;;;9.40;99.90;;;;;;4976180;28;20394;-77
2023/10/28 05:19:22;;;;;;;4.90;1.50;;;9.30;99.90;;;;;;4962960;28;20410;-77
2023/10/28 05:21:47;;;;;;;2.28;1.58;;;9.30;99.90;;;;;;4974381;28;20113;-79
2023/10/28 05:24:13;;;;;;;10.32;2.17;;;9.30;99.90;;;;;;4974099;28;20137;-76
2023/10/28 05:26:39;;;;;;;3.17;1.58;;;9.20;99.90;;;;;;4960068;28;20038;-80
2023/10/28 05:29:05;;;;;;;3.47;1.48;;;9.20;99.90;;;;;;4956076;28;20061;-79
2023/10/28 05:31:30;;;;;;;6.28;1.80;;;9.20;99.90;;;;;;4969348;28;20031;-78
2023/10/28 05:33:56;;;;;;;5.32;2.08;;;9.20;99.90;;;;;;4957838;28;20381;-79
2023/10/28 05:36:22;;;;;;;4.57;1.58;;;9.30;99.90;;;;;;4973027;28;20105;-79
2023/10/28 05:38:48;;;;;;;3.42;1.50;;;9.30;99.90;;;;;;4976482;28;20780;-78
2023/10/28 05:41:13;;;;;;;4.70;1.70;;;9.30;99.90;;;;;;4992581;28;20109;-78
2023/10/28 05:43:40;;;;;;;4.35;1.55;;;9.30;99.90;;;;;;4958909;28;20034;-78
2023/10/28 05:46:05;;;;;;;1.73;1.10;;;9.30;99.90;;;;;;4959435;28;20082;-78
2023/10/28 05:48:32;;;;;;;7.95;1.55;;;9.30;99.90;;;;;;4959306;28;20057;-78
2023/10/28 05:50:58;;;;;;;4.30;1.52;;;9.30;99.90;;;;;;4974826;28;20640;-78
2023/10/28 05:53:24;;;;;;;3.38;1.20;;;9.30;99.90;;;;;;4954235;28;20035;-78
2023/10/28 05:55:50;;;;;;;3.97;1.50;;;9.20;99.90;;;;;;4962200;28;20037;-78
2023/10/28 05:58:16;;;;;;;5.18;1.90;;;9.30;99.90;;;;;;4959741;28;20505;-78
2023/10/28 06:00:42;;;;;;;1.98;1.55;;;9.30;99.90;;;;;;4957345;28;20427;-78
2023/10/28 06:03:08;;;;;;;5.25;1.90;;;9.30;99.90;;;;;;4957165;28;20027;-79
2023/10/28 06:05:37;;;;;;;3.42;1.27;;;9.30;99.90;;;;;;4976183;28;20448;-78
2023/10/28 06:08:03;;;;;;;9.23;1.60;;;9.30;99.90;;;;;;4974225;28;20117;-78
2023/10/28 06:10:28;;;;;;;4.32;1.92;;;9.30;99.90;;;;;;4972830;28;20533;-79
2023/10/28 06:12:54;;;;;;;2.78;1.17;;;9.30;99.90;;;;;;4968894;28;20125;-79
2023/10/28 06:15:20;;;;;;;1.73;1.13;;;9.30;99.90;;;;;;4976232;28;20041;-78
2023/10/28 06:17:45;;;;;;;5.47;1.17;;;9.30;99.90;;;;;;4973859;28;20041;-78
2023/10/28 06:20:11;;;;;;;3.90;1.95;;;9.30;99.90;;;;;;4975589;28;20138;-78
2023/10/28 06:22:37;;;;;;;2.25;1.52;;;9.30;99.90;;;;;;4973398;28;20046;-78
2023/10/28 06:25:04;;;;;;;3.13;1.80;;;9.40;99.90;;;;;;4957607;28;20553;-78
2023/10/28 06:27:32;;;;;;;2.97;1.20;;;9.30;99.90;;;;;;4973426;28;20051;-78
2023/10/28 06:29:58;;;;;;;2.65;1.30;;;9.40;99.90;;;;;;4973183;28;20400;-78
2023/10/28 06:32:23;;;;;;;1.40;1.08;;;9.40;99.90;;;;;;4981125;28;20058;-79
2023/10/28 06:34:49;;;;;;;2.92;1.25;;;9.40;99.90;;;;;;4974546;28;20524;-79
2023/10/28 06:37:15;;;;;;;2.50;1.30;;;9.50;99.90;;;;;;4972578;28;20375;-78
2023/10/28 06:39:40;;;;;;;3.83;1.52;;;9.50;99.90;;;;;;4977427;28;20454;-77
2023/10/28 06:42:06;;;;;;;2.30;1.23;;;9.50;99.90;;;;;;4961714;28;20035;-78
2023/10/28 06:44:32;;;;;;;1.33;1.15;;;9.50;99.90;;;;;;4971876;28;20038;-78
2023/10/28 06:46:58;;;;;;;2.33;1.42;;;9.50;99.90;;;;;;4990168;28;20045;-78
2023/10/28 06:49:24;;;;;;;2.08;1.08;;;9.50;99.90;;;;;;4953248;28;20035;-77
2023/10/28 06:51:50;;;;;;;2.15;1.15;;;9.60;99.90;;;;;;4974884;28;20173;-78
2023/10/28 06:54:15;;;;;;;3.42;1.33;;;9.60;99.90;;;;;;4970960;28;20030;-78
2023/10/28 06:56:42;;;;;;;5.72;1.67;;;9.60;99.90;;;;;;4973838;28;20046;-79
2023/10/28 06:59:08;;;;;;;2.40;1.55;;;9.60;99.90;;;;;;4975155;28;20060;-79
2023/10/28 07:01:34;;;;;;;2.50;1.35;;;9.60;99.90;;;;;;4977559;28;20058;-79
2023/10/28 07:04:01;;;;;;;2.60;2.33;;;9.60;99.90;;;;;;4966907;28;20379;-79
2023/10/28 07:06:26;;;;;;;8.25;1.60;;;9.60;99.90;;;;;;4961407;28;20421;-78
2023/10/28 07:08:52;;;;;;;2.00;1.17;;;9.70;99.90;;;;;;4961772;28;20042;-77
2023/10/28 07:11:17;;;;;;;2.10;1.17;;;9.70;99.90;;;;;;4958951;28;20123;-77
2023/10/28 07:13:44;;;;;;;3.20;1.20;;;9.70;99.90;;;;;;4974717;28;20073;-78
2023/10/28 07:16:10;;;;;;;5.55;1.08;;;9.70;99.90;;;;;;4950333;28;20454;-78
2023/10/28 07:18:35;;;;;;;2.85;1.42;;;9.70;99.90;;;;;;4969195;28;20043;-79
2023/10/28 07:21:02;;;;;;;5.95;1.05;;;9.70;99.90;;;;;;4972466;28;20085;-78
2023/10/28 07:23:27;;;;;;;2.88;1.17;;;9.80;99.90;;;;;;4957096;28;20041;-78
2023/10/28 07:25:54;;;;;;;6.78;1.10;;;9.80;99.90;;;;;;4958354;28;20042;-77
2023/10/28 07:28:23;;;;;;;1.65;0.95;;;9.90;99.90;;;;;;4954245;28;20697;-78
2023/10/28 07:30:52;;;;;;;2.50;0.95;;;9.90;99.90;;;;;;4976730;28;20088;-78
2023/10/28 07:33:22;;;;;;;2.55;1.00;;;9.90;99.90;;;;;;4948961;28;20034;-78
2023/10/28 07:35:48;;;;;;;1.35;0.70;;;10.00;99.90;;;;;;4948293;28;20058;-78
2023/10/28 07:38:17;;;;;;;1.35;0.68;;;10.10;99.90;;;;;;4960325;28;20065;-78
2023/10/28 07:40:47;;;;;;;1.27;0.68;;;10.10;99.90;;;;;;4956703;28;20034;-78
2023/10/28 07:43:13;;;;;;;1.02;0.85;;;10.20;99.90;;;;;;4976485;28;20065;-78
2023/10/28 07:45:39;;;;;;;1.33;0.57;;;10.30;99.90;;;;;;4960282;28;20045;-77
2023/10/28 07:48:06;;;;;;;3.63;0.80;;;10.40;99.90;;;;;;4976729;28;20046;-78
2023/10/28 07:50:33;;;;;;;2.08;0.55;;;10.50;99.90;;;;;;4979990;28;20034;-77
2023/10/28 07:52:59;;;;;;;1.08;0.60;;;10.60;99.90;;;;;;4992728;28;20046;-78
2023/10/28 07:55:24;;;;;;;0.52;0.52;;;10.60;99.90;;;;;;4976763;28;20119;-78
2023/10/28 07:57:50;;;;;;;2.00;0.70;;;10.70;99.90;;;;;;4978620;28;20521;-78
2023/10/28 08:00:15;;;;;;;1.83;0.68;;;10.70;99.90;;;;;;4965340;28;20092;-78
2023/10/28 08:02:44;;;;;;;0.73;0.60;;;10.80;99.90;;;;;;4977020;28;20039;-78
2023/10/28 08:05:11;;;;;;;3.78;0.52;;;10.80;99.90;;;;;;4976115;28;20038;-78
2023/10/28 08:07:37;;;;;;;0.50;0.40;;;10.90;99.90;;;;;;4960464;28;20049;-78
2023/10/28 08:10:04;;;;;;;2.72;0.93;;;11.00;99.90;;;;;;4976071;28;20479;-78
2023/10/28 08:12:30;;;;;;;2.53;0.80;;;11.00;99.90;;;;;;4942466;28;20045;-78
2023/10/28 08:14:55;;;;;;;3.58;0.90;;;11.00;99.90;;;;;;4962792;28;20034;-78
2023/10/28 08:17:21;;;;;;;2.17;0.70;;;11.10;99.90;;;;;;4975383;28;20030;-78
2023/10/28 08:19:47;;;;;;;0.98;0.65;;;11.10;99.90;;;;;;4974506;28;20030;-78
2023/10/28 08:22:14;;;;;;;1.58;0.70;;;11.10;99.90;;;;;;4973678;28;20097;-78
2023/10/28 08:24:40;;;;;;;0.55;0.40;;;11.10;99.90;;;;;;4970613;28;20049;-79
2023/10/28 08:27:08;;;;;;;2.08;0.70;;;11.10;99.90;;;;;;4956774;28;20038;-78
2023/10/28 08:29:39;;;;;;;2.83;0.80;;;11.10;99.90;;;;;;4974407;28;20032;-78
2023/10/28 08:32:07;;;;;;;4.63;0.80;;;11.20;99.90;;;;;;4970994;28;20026;-78
2023/10/28 08:34:33;;;;;;;3.35;0.88;;;11.20;99.90;;;;;;4957707;28;20057;-78
2023/10/28 08:36:59;;;;;;;1.73;0.60;;;11.20;99.90;;;;;;4961022;28;20074;-78
2023/10/28 08:39:25;;;;;;;3.22;0.85;;;11.20;99.90;;;;;;4969872;28;20015;-78
2023/10/28 08:41:51;;;;;;;4.43;0.70;;;11.30;99.90;;;;;;4964465;28;20080;-78
2023/10/28 08:44:27;;;;;;;0.98;0.70;;;11.30;99.90;;;;;;4974883;28;20034;-78
2023/10/28 08:46:52;;;;;;;1.17;0.50;;;11.30;99.90;;;;;;4962291;28;20033;-78
2023/10/28 08:49:18;;;;;;;4.28;0.63;;;11.30;99.90;;;;;;4975878;28;20030;-78
2023/10/28 08:51:47;;;;;;;4.80;1.08;;;11.30;99.90;;;;;;4960916;28;20042;-78
2023/10/28 08:54:13;;;;;;;3.53;0.40;;;11.40;99.90;;;;;;4977738;28;20089;-77
2023/10/28 08:56:40;;;;;;;4.20;0.90;;;11.40;99.90;;;;;;4958547;28;20035;-77
2023/10/28 08:59:07;;;;;;;2.63;0.70;;;11.40;99.90;;;;;;4960337;28;20042;-77
2023/10/28 09:01:33;;;;;;;3.13;0.55;;;11.50;99.90;;;;;;4955855;28;20055;-77
2023/10/28 09:04:00;;;;;;;2.67;0.60;;;11.50;99.90;;;;;;4971077;28;20113;-78
2023/10/28 09:06:28;;;;;;;4.43;0.82;;;11.60;99.90;;;;;;4973025;28;20038;-78
2023/10/28 09:08:55;;;;;;;4.70;0.73;;;11.60;99.90;;;;;;4955468;28;20030;-78
2023/10/28 09:11:27;;;;;;;1.40;0.60;;;11.60;99.90;;;;;;4972257;28;20554;-76
2023/10/28 09:13:53;;;;;;;4.40;0.90;;;11.60;99.90;;;;;;4976812;28;20042;-77
2023/10/28 09:16:18;;;;;;;2.05;0.85;;;11.60;99.90;;;;;;4971319;28;20029;-76
2023/10/28 09:18:44;;;;;;;2.28;1.80;;;11.60;99.90;;;;;;4975002;28;20367;-77
2023/10/28 09:21:10;;;;;;;2.72;0.73;;;11.50;99.90;;;;;;4962786;28;20088;-77
2023/10/28 09:23:39;;;;;;;3.92;1.40;;;11.60;99.90;;;;;;4969823;28;20561;-77
2023/10/28 09:26:08;;;;;;;2.72;0.52;;;11.70;99.90;;;;;;4972331;28;20507;-77
2023/10/28 09:28:33;;;;;;;1.45;0.80;;;11.70;99.90;;;;;;4976696;28;20384;-77
2023/10/28 09:30:59;;;;;;;4.88;1.08;;;11.70;99.90;;;;;;4974117;28;20033;-76
2023/10/28 09:33:25;;;;;;;0.63;0.63;;;11.80;99.90;;;;;;4973302;28;20039;-77
2023/10/28 09:35:53;;;;;;;3.35;0.60;;;11.80;99.90;;;;;;4976478;28;20042;-77
2023/10/28 09:38:19;;;;;;;2.28;1.00;;;11.90;99.90;;;;;;4956669;28;20492;-77
2023/10/28 09:40:45;;;;;;;1.02;0.52;;;11.90;99.90;;;;;;4977340;28;20121;-77
2023/10/28 09:43:10;;;;;;;5.63;0.80;;;11.90;99.90;;;;;;4976618;28;20042;-77
2023/10/28 09:45:36;;;;;;;3.40;0.85;;;12.00;99.90;;;;;;4974179;28;20049;-77
2023/10/28 09:48:04;;;;;;;5.65;1.08;;;12.00;99.90;;;;;;4960735;28;20076;-77
2023/10/28 09:50:30;;;;;;;4.85;1.20;;;12.10;99.90;;;;;;4976618;28;20041;-78
2023/10/28 09:52:57;;;;;;;4.47;0.90;;;12.10;99.90;;;;;;4974733;28;20050;-78
2023/10/28 09:55:27;;;;;;;2.25;0.75;;;12.00;99.90;;;;;;4974863;28;20717;-77
2023/10/28 09:58:02;;;;;;;3.00;0.60;;;12.10;99.90;;;;;;4974616;28;20546;-77
2023/10/28 10:00:28;;;;;;;1.98;0.65;;;12.10;99.90;;;;;;4954634;28;20149;-76
2023/10/28 10:03:25;;;;;;;3.53;0.73;;;12.10;99.90;;;;;;4971674;28;20125;-76
2023/10/28 10:05:53;;;;;;;2.35;0.68;;;12.10;99.90;;;;;;4993119;28;20034;-76
2023/10/28 10:08:24;;;;;;;2.38;0.90;;;12.20;99.90;;;;;;4977715;28;20038;-78
2023/10/28 10:10:51;;;;;;;3.97;0.77;;;12.20;99.90;;;;;;4958499;28;20092;-77
2023/10/28 10:13:17;;;;;;;0.43;0.32;;;12.20;99.90;;;;;;4957843;28;20552;-78
2023/10/28 10:15:48;;;;;;;1.45;1.02;;;12.10;99.90;;;;;;4972580;28;20131;-77
2023/10/28 10:18:21;;;;;;;2.28;0.88;;;12.10;99.90;;;;;;4966460;28;20495;-78
2023/10/28 10:20:47;;;;;;;1.27;0.40;;;12.20;99.90;;;;;;4948640;28;20045;-77
2023/10/28 10:23:13;;;;;;;5.28;1.00;;;12.20;99.90;;;;;;4961985;28;20026;-77
2023/10/28 10:25:46;;;;;;;3.08;0.60;;;12.30;99.90;;;;;;4974547;28;20613;-77
2023/10/28 10:28:13;;;;;;;2.15;0.65;;;12.30;99.90;;;;;;4958139;28;20085;-78
2023/10/28 10:30:40;;;;;;;4.38;0.57;;;12.40;99.90;;;;;;4972879;28;20475;-77
2023/10/28 10:33:06;;;;;;;3.65;0.80;;;12.50;99.90;;;;;;4955532;28;20453;-78
2023/10/28 10:35:32;;;;;;;1.00;0.70;;;12.50;99.90;;;;;;4972182;28;20034;-78
2023/10/28 10:38:02;;;;;;;2.42;0.40;;;12.50;99.90;;;;;;4958498;28;20054;-76
2023/10/28 10:40:31;;;;;;;1.75;0.60;;;12.60;99.90;;;;;;4972227;28;20045;-77
2023/10/28 10:43:09;;;;;;;1.05;0.45;;;12.60;99.90;;;;;;4974749;28;20027;-78
2023/10/28 10:45:35;;;;;;;3.15;0.50;;;12.60;99.90;;;;;;4975259;28;20069;-77
2023/10/28 10:48:02;;;;;;;0.93;0.35;;;12.70;99.90;;;;;;4971178;28;20153;-77
2023/10/28 10:50:28;;;;;;;3.13;0.43;;;12.80;99.90;;;;;;4953184;28;20027;-77
2023/10/28 10:52:54;;;;;;;1.55;0.40;;;12.90;99.90;;;;;;4959788;28;20571;-77
2023/10/28 10:55:23;;;;;;;2.03;0.75;;;13.10;99.90;;;;;;4970818;28;20039;-77
2023/10/28 10:57:52;;;;;;;1.77;0.50;;;13.30;99.90;;;;;;4941230;28;20506;-77
2023/10/28 11:00:18;;;;;;;1.05;0.52;;;13.40;99.90;;;;;;4973374;28;20058;-77
2023/10/28 11:02:45;;;;;;;1.83;0.45;;;13.60;99.90;;;;;;4975544;28;20117;-77
2023/10/28 11:05:12;;;;;;;2.33;0.60;;;13.90;99.90;;;;;;4961644;28;20046;-78
2023/10/28 11:07:38;;;;;;;1.42;0.50;;;14.00;99.90;;;;;;4975127;28;20073;-78
2023/10/28 11:10:08;;;;;;;3.72;0.73;;;14.00;99.90;;;;;;4978344;28;20058;-78
2023/10/28 11:12:34;;;;;;;0.73;0.50;;;14.10;99.90;;;;;;4959800;28;20026;-77
2023/10/28 11:14:59;;;;;;;2.80;0.77;;;14.10;99.90;;;;;;4976254;28;20042;-77
2023/10/28 11:17:25;;;;;;;4.85;0.43;;;14.30;99.90;;;;;;4971417;28;20390;-78
2023/10/28 11:19:55;;;;;;;3.22;0.70;;;14.40;99.90;;;;;;4627924;28;9999792;-78
2023/10/28 11:22:21;;;;;;;1.45;0.65;;;14.40;99.90;;;;;;4955350;28;20117;-78
2023/10/28 11:24:54;;;;;;;1.65;0.52;;;14.50;99.90;;;;;;4955546;28;20114;-77
2023/10/28 11:27:19;;;;;;;5.95;0.75;;;14.60;99.90;;;;;;4943898;28;20038;-78
2023/10/28 11:29:50;;;;;;;2.65;0.80;;;14.70;99.90;;;;;;4960218;28;20769;-78
2023/10/28 11:32:15;;;;;;;4.13;0.80;;;14.80;99.90;;;;;;4954142;28;20046;-77
2023/10/28 11:34:41;;;;;;;1.45;0.63;;;14.90;99.90;;;;;;4991247;28;20034;-77
2023/10/28 11:37:10;;;;;;;2.65;0.70;;;14.90;99.90;;;;;;4975328;28;20030;-78
2023/10/28 11:39:39;;;;;;;3.13;0.90;;;14.90;99.90;;;;;;4974098;28;20472;-78
2023/10/28 11:42:12;;;;;;;4.15;0.68;;;15.00;99.90;;;;;;4959434;28;20046;-78
2023/10/28 11:44:41;;;;;;;4.57;0.80;;;15.20;99.90;;;;;;4955970;28;20173;-78
2023/10/28 11:47:09;;;;;;;3.08;0.80;;;15.20;99.90;;;;;;4963309;28;20064;-78
2023/10/28 11:49:34;;;;;;;1.33;0.52;;;15.20;99.90;;;;;;4934456;28;20080;-78
2023/10/28 11:52:01;;;;;;;0.30;0.30;;;15.20;99.90;;;;;;4946611;28;20035;-79
2023/10/28 11:54:26;;;;;;;5.05;0.95;;;15.20;99.90;;;;;;4973432;28;20433;-78
2023/10/28 11:56:52;;;;;;;1.50;0.50;;;15.30;99.90;;;;;;4976665;28;20038;-78
2023/10/28 11:59:17;;;;;;;5.45;1.00;;;15.40;99.90;;;;;;4959291;28;20113;-78
2023/10/28 12:01:43;;;;;;;2.58;0.70;;;15.70;99.90;;;;;;4628316;28;10000245;-78
2023/10/28 12:04:08;;;;;;;9.35;1.80;;;15.70;99.90;;;;;;4957371;28;20038;-78
2023/10/28 12:06:34;;;;;;;5.00;0.93;;;15.60;99.90;;;;;;4958541;28;20044;-76
2023/10/28 12:09:00;;;;;;;4.03;0.82;;;15.70;99.90;;;;;;4971338;28;20050;-77
2023/10/28 12:11:27;;;;;;;4.43;0.75;;;15.60;99.90;;;;;;4966041;28;20038;-77
2023/10/28 12:13:56;;;;;;;4.22;1.02;;;15.50;99.90;;;;;;4954096;28;20039;-77
2023/10/28 12:16:21;;;;;;;2.22;0.60;;;15.50;99.90;;;;;;4971415;28;20038;-77
2023/10/28 12:18:47;;;;;;;8.25;1.40;;;15.40;99.90;;;;;;4959480;28;20041;-77
2023/10/28 12:21:15;;;;;;;2.97;0.60;;;15.40;99.90;;;;;;4973172;28;20136;-76
2023/10/28 12:23:42;;;;;;;7.72;1.45;;;15.30;99.90;;;;;;4961100;28;20096;-77
2023/10/28 12:26:08;;;;;;;7.50;1.30;;;15.50;99.90;;;;;;4970565;28;20038;-77
2023/10/28 12:28:34;;;;;;;7.70;1.42;;;15.50;99.90;;;;;;4972405;28;20104;-76
2023/10/28 12:31:01;;;;;;;3.42;0.88;;;15.60;99.90;;;;;;4974388;28;20073;-78
2023/10/28 12:33:27;;;;;;;7.65;1.55;;;15.50;99.90;;;;;;4971221;28;20491;-77
2023/10/28 12:35:52;;;;;;;6.55;1.48;;;15.60;99.90;;;;;;4941586;28;20091;-76
2023/10/28 12:38:18;;;;;;;12.63;2.00;;;15.60;99.90;;;;;;4972077;28;20034;-76
2023/10/28 12:40:43;;;;;;;4.32;1.00;;;15.60;99.90;;;;;;4972244;28;20030;-78
2023/10/28 12:43:09;;;;;;;7.95;1.30;;;15.50;99.90;;;;;;4960633;28;20033;-77
2023/10/28 12:45:35;;;;;;;12.55;2.08;;;15.40;99.90;;;;;;4961968;28;20074;-77
2023/10/28 12:48:00;;;;;;;4.40;1.10;;;15.40;99.90;;;;;;4977446;28;20033;-77